KAUO/AUO METAR and TAF weather

Enter ICAO airport designator
Station Type Date Time Source
KAUO METAR 2019/06/18 16:46 UTC NOAA

KAUO 181646Z AUTO 15008G17KT 10SM SCT023 BKN028 OVC050 25/23 A3001 RMK AO2 LTG DSNT N RAB31E45 P0001


Station Type Date Time Source
KAUO Decoded METAR 2019/06/18 16:46 UTC NOAA

Auburn-Opelika Airport, AL, United States (KAUO) 32-37N 085-26W
Jun 18, 2019 - 12:46 PM EDT / 2019.06.18 1646 UTC
Wind: from the SSE (150 degrees) at 9 MPH (8 KT) gusting to 20 MPH (17 KT):0
Visibility: 10 mile(s):0
Sky conditions: overcast
Weather: Lightning observed
Precipitation last hour: 0.01 inches
Temperature: 77 F (25 C)
Dew Point: 73 F (23 C)
Relative Humidity: 88%
Pressure (altimeter): 30.01 in. Hg (1016 hPa)
ob: KAUO 181646Z AUTO 15008G17KT 10SM SCT023 BKN028 OVC050 25/23 A3001 RMK AO2 LTG DSNT N RAB31E45 P0001
cycle: 17

Station Type Date Time Source
KAUO TAF UTC NOAA

Error!

Example: see airport list